KMOX/MOX METAR and TAF weather

Enter ICAO airport designator
Station Type Date Time Source
KMOX METAR 2019/08/22 15:36 UTC NOAA

KMOX 221536Z AUTO 16006KT 10SM CLR 19/12 A3006 RMK AO2


Station Type Date Time Source
KMOX Decoded METAR 2019/08/22 15:36 UTC NOAA

Station name not available
Aug 22, 2019 - 11:36 AM EDT / 2019.08.22 1536 UTC
Wind: from the SSE (160 degrees) at 7 MPH (6 KT):0
Visibility: 10 mile(s):0
Sky conditions: clear
Temperature: 66 F (19 C)
Dew Point: 53 F (12 C)
Relative Humidity: 63%
Pressure (altimeter): 30.06 in. Hg (1017 hPa)
ob: KMOX 221536Z AUTO 16006KT 10SM CLR 19/12 A3006 RMK AO2
cycle: 15

Station Type Date Time Source
KMOX TAF UTC NOAA

Error!

Example: see airport list